• Join FlightAware (Why Join?)
  • Login
  • US Flag 
03:32PM EST


 

Airport Tracker/Info


-or-


 

Live Flight TrackerFlight Track Log ✈ AAL1361 ✈ 30-Dec-2013 ✈ KBNA - KLAX

Flight Track Log - Related Links

Times and Time Zones

All times are in EST time to prevent confusion due to time zone crossing. See the AAL1361 flight status page for this flight to view local times or setup timezone preferences in your user account.

Time Position Orientation Groundspeed Altitude Reporting Facility
EST Latitude Longitude Course Direction KTS MPH feet Rate Location/Type
08:34AM 36.1333 -86.6833 307° West 166 191 1,300  Level Nashville TRACON
08:35AM 36.1500 -86.7500 287° West 215 247 3,000 2,160 Climbing Nashville TRACON
08:36AM 36.1597 -86.8233 279° West 240 276 5,300 3,240 Climbing Memphis Center
08:37AM 36.1573 -87.2025 278° West  Level Estimated
08:37AM 36.1839 -86.9086 289° West 255 293 9,100  Level Memphis Center
08:38AM 36.1652 -87.3337 296° West  Level Estimated
08:38AM 36.2083 -86.9956 289° West 261 300 11,100  Level Memphis Center
08:39AM 36.2296 -87.4383 307° West  Level FlightAware Approximate
08:39AM 36.2378 -87.1033 289° West 314 361 13,500  Level Memphis Center
08:40AM 36.2675 -87.2106 289° West 324 373 16,700 2,520 Climbing Memphis Center
08:41AM 36.2869 -87.3208 282° West 324 373 18,700 1,980 Climbing Memphis Center
08:42AM 36.3056 -87.4378 281° West 337 388 20,800 2,160 Climbing Memphis Center
08:43AM 36.3375 -87.5553 289° West 352 405 23,200 2,040 Climbing Memphis Center
08:44AM 36.3889 -87.6653 300° West 362 417 25,000 1,920 Climbing Memphis Center
08:45AM 36.4394 -87.7781 299° West 368 423 27,200 2,160 Climbing Memphis Center
08:46AM 36.4875 -87.8853 299° West 359 413 29,500 2,100 Climbing Memphis Center
08:47AM 36.5328 -87.9861 299° West 340 391 31,600 1,200 Climbing Memphis Center
08:48AM 36.5761 -88.0867 298° West 329 379 32,000 180 Climbing Memphis Center
08:49AM 36.6225 -88.1917 299° West 337 388 32,000  Level Memphis Center
08:50AM 36.6722 -88.2936 301° West 342 394 32,000  Level Memphis Center
08:51AM 36.7256 -88.3939 304° West 346 398 32,000  Level Memphis Center
08:52AM 36.7786 -88.4939 304° West 347 399 32,000  Level Memphis Center
08:53AM 36.8419 -88.6150 303° West 348 400 32,000  Level Memphis Center
08:54AM 36.8944 -88.7153 303° West 348 400 32,000  Level Memphis Center
08:55AM 36.9483 -88.8178 303° West 352 405 32,000  Level Memphis Center
08:56AM 37.0019 -88.9197 303° West 353 406 32,000  Level Memphis Center
08:57AM 37.0550 -89.0231 303° West 354 407 32,000  Level Memphis Center
08:58AM 37.1094 -89.1256 304° West 354 407 32,000  Level Memphis Center
08:59AM 37.1628 -89.2289 303° West 355 409 32,000  Level Memphis Center
09:00AM 37.2258 -89.3517 303° West 352 405 32,000  Level Memphis Center
09:01AM 37.2689 -89.4361 303° West 352 405 32,000  Level Kansas City Center
09:02AM 37.3233 -89.5400 303° West 355 409 32,000  Level Kansas City Center
09:03AM 37.3775 -89.6486 302° West 361 415 32,000  Level Kansas City Center
09:04AM 37.4333 -89.7569 303° West 367 422 32,000  Level Kansas City Center
09:05AM 37.4900 -89.8669 303° West 371 427 32,000  Level Kansas City Center
09:06AM 37.5464 -89.9789 302° West 375 432 32,000  Level Kansas City Center
09:07AM 37.6061 -90.0969 303° West 384 442 32,000  Level Kansas City Center
09:08AM 37.6639 -90.2156 302° West 391 450 32,000  Level Kansas City Center
09:09AM 37.6906 -90.3456 285° West 386 444 32,000  Level Kansas City Center
09:10AM 37.7111 -90.4764 281° West 381 438 32,000  Level Kansas City Center
09:11AM 37.7322 -90.6075 282° West 380 437 32,000  Level Kansas City Center
09:12AM 37.7522 -90.7392 281° West 381 438 32,000  Level Kansas City Center
09:13AM 37.7728 -90.8722 281° West 382 440 32,000  Level Kansas City Center
09:14AM 37.7942 -91.0042 282° West 383 441 32,000  Level Kansas City Center
09:15AM 37.8178 -91.1628 281° West 379 436 32,000  Level Kansas City Center
09:16AM 37.8367 -91.2961 280° West 383 441 32,000  Level Kansas City Center
09:17AM 37.8567 -91.4303 281° West 385 443 32,000  Level Kansas City Center
09:18AM 37.8764 -91.5642 281° West 386 444 32,000  Level Kansas City Center
09:19AM 37.8969 -91.6975 281° West 387 445 32,000  Level Kansas City Center
09:20AM 37.9169 -91.8317 281° West 387 445 32,000  Level Kansas City Center
09:21AM 37.9356 -91.9650 280° West 385 443 32,000  Level Kansas City Center
09:22AM 37.9544 -92.0925 281° West 387 445 32,000  Level Kansas City Center
09:23AM 37.9736 -92.2264 280° West 387 445 32,000  Level Kansas City Center
09:24AM 37.9956 -92.3853 280° West 384 442 32,000  Level Kansas City Center
09:25AM 38.0153 -92.5175 281° West 382 440 32,000  Level Kansas City Center
09:26AM 38.0331 -92.6500 280° West 382 440 32,000  Level Kansas City Center
09:27AM 38.0503 -92.7806 280° West 382 440 32,000  Level Kansas City Center
09:29AM 38.0683 -92.9142 280° West 382 440 32,000  Level Kansas City Center
09:30AM 38.0867 -93.0497 280° West 384 442 32,000  Level Kansas City Center
09:31AM 38.1050 -93.1858 280° West 389 448 32,000  Level Kansas City Center
09:32AM 38.1239 -93.3228 280° West 391 450 32,000  Level Kansas City Center
09:33AM 38.1417 -93.4600 279° West 393 452 32,000  Level Kansas City Center
09:34AM 38.1625 -93.6253 279° West 393 452 32,000  Level Kansas City Center
09:35AM 38.1797 -93.7625 279° West 392 451 32,000  Level Kansas City Center
09:36AM 38.1989 -93.8983 280° West 390 449 32,000  Level Kansas City Center
09:37AM 38.2153 -94.0342 279° West 388 447 32,000  Level Kansas City Center
09:38AM 38.2333 -94.1767 279° West 386 444 32,000  Level Kansas City Center
09:39AM 38.2492 -94.3061 279° West 386 444 32,000  Level Kansas City Center
09:40AM 38.2647 -94.4367 279° West 387 445 32,000  Level Kansas City Center
09:41AM 38.2689 -94.5875 272° West 386 444 32,000  Level Kansas City Center
09:42AM 38.2644 -94.7203 268° West 388 447 32,000  Level Kansas City Center
09:43AM 38.2594 -94.8736 268° West 389 448 32,000  Level Kansas City Center
09:44AM 38.2547 -95.0050 267° West 388 447 32,000  Level Kansas City Center
09:45AM 38.2503 -95.1367 268° West 387 445 32,000  Level Kansas City Center
09:46AM 38.2450 -95.2894 268° West 387 445 32,000  Level Kansas City Center
09:47AM 38.2397 -95.4222 267° West 388 447 32,000  Level Kansas City Center
09:48AM 38.2344 -95.5764 268° West 388 447 32,000  Level Kansas City Center
09:49AM 38.2292 -95.7100 267° West 393 452 32,000  Level Kansas City Center
09:50AM 38.2236 -95.8433 267° West 393 452 32,000  Level Kansas City Center
09:51AM 38.2178 -95.9972 267° West 391 450 32,000  Level Kansas City Center
09:52AM 38.2122 -96.1297 267° West 390 449 32,000  Level Kansas City Center
09:53AM 38.2047 -96.2856 267° West 394 453 32,000 300 Level Kansas City Center
09:54AM 38.1981 -96.4194 266° West 396 456 32,700 780 Climbing Kansas City Center
09:55AM 38.1911 -96.5661 267° West 400 460 33,700 1,140 Climbing Kansas City Center
09:56AM 38.1850 -96.7089 267° West 404 465 35,100 1,080 Climbing Kansas City Center
09:57AM 38.1778 -96.8475 266° West 396 456 36,000 420 Climbing Kansas City Center
09:58AM 38.1706 -96.9861 266° West 394 453 36,000  Level Kansas City Center
09:59AM 38.1631 -97.1242 266° West 392 451 36,000  Level Kansas City Center
10:00AM 38.1547 -97.2886 266° West 390 449 36,000  Level Kansas City Center
10:01AM 38.1467 -97.4264 266° West 392 451 36,000  Level Kansas City Center
10:02AM 38.1397 -97.5592 266° West 390 449 36,000  Level Kansas City Center
10:03AM 38.1317 -97.6953 266° West 389 448 36,000  Level Kansas City Center
10:04AM 38.1242 -97.8275 266° West 389 448 36,000  Level Kansas City Center
10:05AM 38.1147 -97.9953 266° West 393 452 36,000  Level Kansas City Center
10:06AM 38.1067 -98.1347 266° West 395 455 36,000  Level Kansas City Center
10:08AM 38.0981 -98.2736 266° West 394 453 36,000  Level Kansas City Center
10:09AM 38.0889 -98.4125 265° West 396 456 36,000  Level Kansas City Center
10:10AM 38.0806 -98.5508 266° West 395 455 36,000  Level Kansas City Center
10:11AM 38.0714 -98.6892 265° West 394 453 36,000  Level Kansas City Center
10:12AM 38.0625 -98.8272 265° West 394 453 36,000  Level Kansas City Center
10:13AM 38.0536 -98.9661 265° West 395 455 36,000  Level Kansas City Center
10:14AM 38.0442 -99.1036 265° West 393 452 36,000  Level Kansas City Center
10:15AM 38.0325 -99.2681 265° West 391 450 36,000  Level Kansas City Center
10:16AM 38.0233 -99.4044 265° West 391 450 36,000  Level Kansas City Center
10:17AM 38.0128 -99.5478 265° West 394 453 36,000 -240 Level Kansas City Center
10:18AM 38.0031 -99.6803 265° West 395 455 35,600 -780 Descending Kansas City Center
10:19AM 37.9922 -99.8328 265° West 391 450 34,500 -840 Descending Kansas City Center
10:20AM 37.9808 -99.9633 264° West 390 449 34,000 -300 Descending Kansas City Center
10:21AM 37.9708 -100.0942 265° West 390 449 34,000  Level Kansas City Center
10:22AM 37.9586 -100.2469 264° West 391 450 34,000  Level Kansas City Center
10:23AM 37.9483 -100.3786 264° West 393 452 34,000  Level Kansas City Center
10:24AM 37.9353 -100.5333 264° West 396 456 34,000  Level Kansas City Center
10:25AM 37.9242 -100.6667 264° West 398 458 34,000  Level Kansas City Center
10:26AM 37.9103 -100.8231 264° West 402 463 34,000  Level Kansas City Center
10:27AM 37.8964 -100.9567 263° West 404 465 34,000  Level Kansas City Center
10:28AM 37.8831 -101.1131 264° West 404 465 34,000  Level Kansas City Center
10:29AM 37.8703 -101.2467 263° West 403 464 34,000  Level Kansas City Center
10:30AM 37.8578 -101.3817 263° West 405 466 34,000  Level Kansas City Center
10:31AM 37.8433 -101.5389 263° West 405 466 34,000  Level Kansas City Center
10:32AM 37.8297 -101.6731 263° West 403 464 34,000  Level Kansas City Center
10:33AM 37.8144 -101.8319 263° West 406 467 34,000  Level Kansas City Center
10:34AM 37.8006 -101.9706 263° West 412 474 34,000  Level Kansas City Center
10:35AM 37.7839 -102.1314 263° West 414 476 34,000  Level Kansas City Center
10:36AM 37.7714 -102.2467 262° West 415 478 34,000  Level Denver Center
10:37AM 37.7586 -102.3850 263° West 413 475 34,000  Level Denver Center
10:38AM 37.7431 -102.5289 262° West 414 476 34,000  Level Denver Center
10:39AM 37.7250 -102.6906 262° West 416 479 34,000  Level Denver Center
10:40AM 37.7111 -102.8289 263° West 416 479 34,000  Level Denver Center
10:41AM 37.6931 -102.9911 262° West 416 479 34,000  Level Denver Center
10:42AM 37.6769 -103.1314 262° West 420 483 34,000  Level Denver Center
10:43AM 37.6617 -103.2700 262° West 418 481 34,000  Level Denver Center
10:44AM 37.6442 -103.4319 262° West 417 480 34,000  Level Denver Center
10:45AM 37.6283 -103.5694 262° West 415 478 34,000  Level Denver Center
10:46AM 37.6103 -103.7300 262° West 414 476 34,000  Level Denver Center
10:47AM 37.5942 -103.8675 262° West 414 476 34,000  Level Denver Center
10:48AM 37.5772 -104.0122 262° West 421 484 34,000  Level Denver Center
10:49AM 37.5561 -104.1836 261° West 421 484 34,000  Level Denver Center
10:50AM 37.5397 -104.3239 262° West 424 488 34,000  Level Denver Center
10:51AM 37.5200 -104.4875 261° West 423 487 34,000  Level Denver Center
10:53AM 37.4992 -104.6494 261° West 421 484 34,000  Level Denver Center
10:54AM 37.4789 -104.8133 261° West 424 488 34,000  Level Denver Center
10:55AM 37.4619 -104.9536 261° West 424 488 34,000  Level Denver Center
10:56AM 37.4408 -105.1175 261° West 424 488 34,000  Level Denver Center
10:57AM 37.4217 -105.2717 261° West 422 486 34,000  Level Denver Center
10:58AM 37.4031 -105.4094 260° West 418 481 34,000  Level Denver Center
10:59AM 37.3806 -105.5719 260° West 422 486 34,000  Level Denver Center
11:00AM 37.3628 -105.7111 261° West 422 486 34,000  Level Denver Center
11:01AM 37.3361 -105.8722 258° West 422 486 34,000  Level Denver Center
11:02AM 37.2989 -106.0108 251° West 437 503 34,000  Level Denver Center
11:03AM 37.2592 -106.1731 253° West 437 503 34,000  Level Denver Center
11:04AM 37.2225 -106.3125 252° West 439 505 34,000  Level Denver Center
11:05AM 37.1806 -106.4758 252° West 441 507 34,000  Level Denver Center
11:06AM 37.1439 -106.6169 252° West 443 510 34,000  Level Denver Center
11:07AM 37.1067 -106.7578 252° West 444 511 34,000  Level Denver Center
11:08AM 37.0639 -106.9242 252° West 450 518 34,000  Level Denver Center
11:09AM 37.0258 -107.0656 251° West 449 517 34,000  Level Denver Center
11:10AM 36.9822 -107.2306 252° West 449 517 34,000  Level Denver Center
11:11AM 36.9450 -107.3722 252° West 448 516 34,000  Level Denver Center
11:12AM 36.9011 -107.5350 251° West 444 511 34,000  Level Denver Center
11:13AM 36.8633 -107.6761 252° West 446 513 34,000  Level Denver Center
11:14AM 36.8186 -107.8397 251° West 446 513 34,000  Level Denver Center
11:15AM 36.7811 -107.9794 252° West 446 513 34,000  Level Denver Center
11:17AM 36.7389 -108.1439 252° West 447 514 34,000  Level Denver Center
11:18AM 36.7147 -108.2872 258° West 443 510 34,000  Level Denver Center
11:19AM 36.6828 -108.4544 257° West 444 511 34,000  Level Denver Center
11:20AM 36.6564 -108.5986 257° West 446 513 34,000  Level Denver Center
11:21AM 36.6247 -108.7658 257° West 447 514 34,000  Level Denver Center
11:22AM 36.5969 -108.9075 256° West 444 511 34,000  Level Denver Center
11:23AM 36.5650 -109.0736 257° West 444 511 34,000  Level Denver Center
11:24AM 36.5375 -109.2164 257° West 445 512 34,000  Level Denver Center
11:25AM 36.5061 -109.3803 257° West 441 507 34,000  Level Denver Center
11:26AM 36.4789 -109.5214 257° West 440 506 34,000  Level Denver Center
11:27AM 36.4458 -109.6861 256° West 441 507 34,000  Level Denver Center
11:28AM 36.4183 -109.8272 256° West 441 507 34,000  Level Denver Center
11:29AM 36.3861 -109.9939 257° West 443 510 34,000  Level Denver Center
11:30AM 36.3564 -110.1375 256° West 444 511 34,000  Level Denver Center
11:31AM 36.3247 -110.2864 255° West 446 513 34,000  Level Denver Center
11:32AM 36.2956 -110.4353 256° West 446 513 34,000  Level Denver Center
11:33AM 36.2642 -110.5828 255° West 444 511 34,000  Level Denver Center
11:34AM 36.2275 -110.7597 256° West 443 510 34,000  Level Denver Center
11:35AM 36.1975 -110.9069 256° West 442 509 34,000  Level Denver Center
11:36AM 36.1658 -111.0544 255° West 444 511 34,000  Level Denver Center
11:37AM 36.1358 -111.2011 256° West 441 507 34,000  Level Denver Center
11:38AM 36.1047 -111.3494 255° West 444 511 34,000  Level Denver Center
11:39AM 36.0731 -111.4981 255° West 446 513 34,000  Level Denver Center
11:40AM 36.0358 -111.6775 256° West 449 517 34,000  Level Denver Center
11:41AM 36.0019 -111.8292 255° West 451 519 34,000  Level Los Angeles Center
11:43AM 35.9656 -112.0011 255° West 452 520 34,000  Level Los Angeles Center
11:44AM 35.9269 -112.1794 255° West 451 519 34,000  Level Los Angeles Center
11:45AM 35.8961 -112.3275 256° West 450 518 34,000  Level Los Angeles Center
11:46AM 35.8642 -112.4758 255° West 450 518 34,000  Level Los Angeles Center
11:47AM 35.8508 -112.6544 265° West 442 509 34,000  Level Los Angeles Center
11:48AM 35.8322 -112.8022 261° West 447 514 34,000  Level Los Angeles Center
11:49AM 35.7814 -112.9433 246° West 457 526 34,000  Level Los Angeles Center
11:50AM 35.7294 -113.0811 245° Southwest 452 520 34,000  Level Los Angeles Center
11:51AM 35.6683 -113.2397 245° Southwest 455 524 34,000  Level Los Angeles Center
11:52AM 35.6125 -113.3853 245° Southwest 453 521 34,000  Level Los Angeles Center
11:53AM 35.5594 -113.5239 245° Southwest 452 520 34,000  Level Los Angeles Center
11:54AM 35.5061 -113.6625 245° Southwest 453 521 34,000  Level Los Angeles Center
11:55AM 35.4539 -113.7994 245° Southwest 448 516 34,000  Level Los Angeles Center
11:56AM 35.3894 -113.9611 244° Southwest 444 511 34,000  Level Los Angeles Center
11:57AM 35.3367 -114.0981 245° Southwest 443 510 34,000  Level Los Angeles Center
11:58AM 35.2833 -114.2350 245° Southwest 445 512 34,000  Level Los Angeles Center
11:59AM 35.2317 -114.3694 245° Southwest 440 506 34,000  Level Los Angeles Center
12:00PM 35.1772 -114.5072 244° Southwest 446 513 34,000  Level Los Angeles Center
12:01PM 35.1217 -114.6444 244° Southwest 449 517 34,000  Level Los Angeles Center
12:02PM 35.0567 -114.8100 244° Southwest 450 518 34,000  Level Los Angeles Center
12:03PM 35.0014 -114.9472 244° Southwest 450 518 34,000  Level Los Angeles Center
12:04PM 34.9456 -115.0847 244° Southwest 451 519 34,000  Level Los Angeles Center
12:05PM 34.8906 -115.2228 244° Southwest 452 520 34,000  Level Los Angeles Center
12:07PM 34.8361 -115.3597 244° Southwest 450 518 34,000  Level Los Angeles Center
12:08PM 34.7794 -115.4972 243° Southwest 453 521 34,000  Level Los Angeles Center
12:09PM 34.7278 -115.6236 244° Southwest 452 520 34,000 -180 Level Los Angeles Center
12:10PM 34.6611 -115.7867 244° Southwest 451 519 33,700 -660 Descending Los Angeles Center
12:11PM 34.6075 -115.9172 244° Southwest 440 506 32,700 -960 Descending Los Angeles Center
12:12PM 34.5531 -116.0525 244° Southwest 441 507 31,800 -900 Descending Los Angeles Center
12:13PM 34.4956 -116.1894 243° Southwest 451 519 30,900 -840 Descending Los Angeles Center
12:14PM 34.4500 -116.2997 243° Southwest 455 524 30,100 -1,320 Descending Los Angeles Center
12:15PM 34.3686 -116.4925 243° Southwest 460 529 28,200 -2,160 Descending Los Angeles Center
12:16PM 34.3119 -116.6261 243° Southwest 449 517 25,700 -2,400 Descending Los Angeles Center
12:17PM 34.2583 -116.7556 243° Southwest 434 499 23,300 -2,280 Descending Los Angeles Center
12:18PM 34.2050 -116.8800 243° Southwest 421 484 21,000 -2,220 Descending Los Angeles Center
12:19PM 34.1550 -116.9978 243° Southwest 399 459 18,700 -1,500 Descending Los Angeles Center
12:20PM 34.1039 -117.1153 242° Southwest 385 443 17,900 -840 Descending Los Angeles Center
12:21PM 34.0497 -117.2383 242° Southwest 368 423 17,000 -1,260 Descending Los Angeles Center
12:22PM 34.0394 -117.3528 264° West 345 397 15,400 -2,160 Descending Los Angeles Center
12:23PM 34.0281 -117.4581 263° West 324 373 12,600 -2,160 Descending Los Angeles Center
12:24PM 34.0189 -117.5683 264° West 329 379 11,000 -1,260 Descending Los Angeles Center
12:25PM 34.0072 -117.6928 264° West 318 366 10,000 -1,020 Descending Los Angeles Center
12:26PM 33.9969 -117.7897 263° West 301 346 9,000 -1,260 Descending Los Angeles Center
12:27PM 33.9883 -117.8808 264° West 283 326 7,400 -1,440 Descending Los Angeles Center
12:28PM 33.9833 -117.9833 267° West 263 303 6,000 -1,140 Descending Southern California TRACON
12:29PM 33.9667 -118.0667 256° West 230 265 5,100 -960 Descending Southern California TRACON
12:30PM 33.9667 -118.1333 270° West 221 254 4,100 -1,080 Descending Southern California TRACON
12:31PM 33.9500 -118.2000 253° West 199 229 3,000 -1,080 Descending Southern California TRACON
12:32PM 33.9500 -118.2667 270° West 191 220 2,000 -960 Descending Southern California TRACON
12:33PM 33.9500 -118.3167 270° West 158 182 1,200 -900 Descending Southern California TRACON
12:34PM 33.9333 -118.3667 248° West 154 177 400 -480 Descending Southern California TRACON
12:35PM 33.9347 -118.4225 272° West 161 185 100 -240 Descending Los Angeles Center